Time,TemperatureF,DewpointF,PressureIn,WindDirection,WindDirectionDegrees,WindSpeedMPH,WindSpeedGustMPH,Humidity,HourlyPrecipIn,Conditions,Clouds,dailyrainin,SoftwareType,DateUTC
2013-08-25 00:00:00,60.0,58.3,30.32,ENE,57,0.0,0.0,94,0.00,,---,0.00,VWS V14.01,2013-08-25 04:00:00,
2013-08-25 00:30:00,59.0,57.3,30.32,ENE,57,0.0,0.0,94,0.00,,---,0.00,VWS V14.01,2013-08-25 04:30:00,
2013-08-25 01:00:00,58.7,57.3,30.31,ENE,57,0.0,1.0,95,0.00,,---,0.00,VWS V14.01,2013-08-25 05:00:00,
2013-08-25 01:30:00,58.4,57.0,30.30,ENE,57,0.0,0.0,95,0.00,,---,0.00,VWS V14.01,2013-08-25 05:30:00,
2013-08-25 02:00:00,57.8,56.4,30.31,ENE,57,0.0,0.0,95,0.00,,---,0.00,VWS V14.01,2013-08-25 06:00:00,
2013-08-25 02:30:00,57.3,56.2,30.30,ENE,57,0.0,0.0,96,0.00,,---,0.00,VWS V14.01,2013-08-25 06:30:00,
2013-08-25 03:00:00,56.9,55.8,30.30,ENE,57,0.0,0.0,96,0.00,,---,0.00,VWS V14.01,2013-08-25 07:00:00,
2013-08-25 03:30:00,56.2,55.1,30.29,ENE,57,0.0,0.0,96,0.00,,---,0.00,VWS V14.01,2013-08-25 07:30:00,
2013-08-25 04:00:00,55.5,54.4,30.30,ENE,57,0.0,0.0,96,0.00,,---,0.00,VWS V14.01,2013-08-25 08:00:00,
2013-08-25 04:30:00,55.1,54.0,30.30,ENE,57,0.0,0.0,96,0.00,,---,0.00,VWS V14.01,2013-08-25 08:30:00,
2013-08-25 05:00:00,55.4,54.3,30.31,ENE,57,0.0,1.0,96,0.00,,---,0.00,VWS V14.01,2013-08-25 09:00:00,
2013-08-25 05:30:00,55.7,54.9,30.33,NE,53,0.0,2.0,97,0.00,,---,0.00,VWS V14.01,2013-08-25 09:30:00,
2013-08-25 06:00:00,56.3,55.5,30.33,NE,52,0.0,2.0,97,0.00,,---,0.00,VWS V14.01,2013-08-25 10:00:00,
2013-08-25 06:30:00,56.4,55.6,30.35,NE,44,0.0,3.0,97,0.00,,---,0.00,VWS V14.01,2013-08-25 10:30:00,
2013-08-25 07:00:00,57.0,56.2,30.36,North,355,0.0,3.0,97,0.00,,---,0.00,VWS V14.01,2013-08-25 11:00:00,
2013-08-25 07:30:00,58.1,57.3,30.36,NW,326,0.0,4.0,97,0.00,,---,0.00,VWS V14.01,2013-08-25 11:30:00,
2013-08-25 08:00:00,60.6,59.8,30.38,North,355,4.0,6.0,97,0.00,,---,0.00,VWS V14.01,2013-08-25 12:00:00,
2013-08-25 08:30:00,63.5,62.3,30.38,North,360,2.0,5.0,96,0.00,,---,0.00,VWS V14.01,2013-08-25 12:30:00,
2013-08-25 09:00:00,67.6,63.9,30.38,NNW,335,3.0,9.0,88,0.01,,---,0.01,VWS V14.01,2013-08-25 13:00:00,
2013-08-25 09:30:00,71.3,65.2,30.38,NNW,333,3.0,6.0,81,0.01,,---,0.01,VWS V14.01,2013-08-25 13:30:00,
2013-08-25 10:00:00,73.5,65.5,30.39,NNE,30,1.0,7.0,76,0.01,,---,0.01,VWS V14.01,2013-08-25 14:00:00,
2013-08-25 10:30:00,75.4,63.7,30.38,North,5,1.0,4.0,67,0.00,,---,0.01,VWS V14.01,2013-08-25 14:30:00,
2013-08-25 11:00:00,76.4,62.9,30.38,East,79,1.0,8.0,63,0.00,,---,0.01,VWS V14.01,2013-08-25 15:00:00,
2013-08-25 11:30:00,77.5,59.6,30.37,NE,51,1.0,6.0,54,0.00,,---,0.01,VWS V14.01,2013-08-25 15:30:00,
2013-08-25 12:00:00,77.5,64.4,30.36,WSW,240,2.0,10.0,64,0.00,,---,0.01,VWS V14.01,2013-08-25 16:00:00,
2013-08-25 12:30:00,77.9,62.4,30.36,ESE,111,2.0,7.0,59,0.00,,---,0.01,VWS V14.01,2013-08-25 16:30:00,
2013-08-25 13:00:00,78.0,63.5,30.35,ESE,103,3.0,9.0,61,0.00,,---,0.01,VWS V14.01,2013-08-25 17:00:00,
2013-08-25 13:30:00,78.8,59.7,30.35,East,100,2.0,10.0,52,0.00,,---,0.01,VWS V14.01,2013-08-25 17:30:00,
2013-08-25 14:00:00,78.6,59.5,30.34,SSE,153,0.0,9.0,52,0.00,,---,0.01,VWS V14.01,2013-08-25 18:00:00,
2013-08-25 14:30:00,78.7,60.2,30.33,ESE,123,0.0,9.0,53,0.00,,---,0.01,VWS V14.01,2013-08-25 18:30:00,
2013-08-25 15:00:00,78.6,51.6,30.32,NE,48,1.0,10.0,39,0.00,,---,0.01,VWS V14.01,2013-08-25 19:00:00,
2013-08-25 15:30:00,78.3,52.7,30.32,SE,145,4.0,8.0,41,0.00,,---,0.01,VWS V14.01,2013-08-25 19:30:00,
2013-08-25 16:00:00,77.5,53.3,30.32,ESE,121,0.0,10.0,43,0.00,,---,0.01,VWS V14.01,2013-08-25 20:00:00,
2013-08-25 16:30:00,77.3,51.8,30.31,SSE,165,2.0,9.0,41,0.00,,---,0.01,VWS V14.01,2013-08-25 20:30:00,
2013-08-25 17:00:00,76.3,53.4,30.30,SE,142,1.0,7.0,45,0.00,,---,0.01,VWS V14.01,2013-08-25 21:00:00,
2013-08-25 17:30:00,75.6,53.4,30.30,South,172,0.0,9.0,46,0.00,,---,0.01,VWS V14.01,2013-08-25 21:30:00,
2013-08-25 18:00:00,74.4,53.5,30.29,NW,325,2.0,8.0,48,0.00,,---,0.01,VWS V14.01,2013-08-25 22:00:00,
2013-08-25 18:30:00,73.0,53.8,30.28,SSW,207,0.0,8.0,51,0.00,,---,0.01,VWS V14.01,2013-08-25 22:30:00,
2013-08-25 19:00:00,71.3,55.8,30.27,SW,219,0.0,7.0,58,0.00,,---,0.01,VWS V14.01,2013-08-25 23:00:00,
2013-08-25 19:30:00,69.4,57.6,30.26,SW,235,2.0,5.0,66,0.00,,---,0.01,VWS V14.01,2013-08-25 23:30:00,
2013-08-25 20:00:00,67.1,58.2,30.26,SW,220,0.0,4.0,73,0.00,,---,0.01,VWS V14.01,2013-08-26 00:00:00,
2013-08-25 20:30:00,64.8,58.1,30.26,SW,225,0.0,3.0,79,0.00,,---,0.01,VWS V14.01,2013-08-26 00:30:00,
2013-08-25 21:00:00,63.2,58.3,30.26,SW,227,0.0,1.0,84,0.00,,---,0.01,VWS V14.01,2013-08-26 01:00:00,
2013-08-25 21:30:00,62.2,58.3,30.26,SW,227,0.0,0.0,87,0.00,,---,0.01,VWS V14.01,2013-08-26 01:30:00,
2013-08-25 22:00:00,61.3,58.3,30.26,SW,227,0.0,1.0,90,0.00,,---,0.01,VWS V14.01,2013-08-26 02:00:00,
2013-08-25 22:30:00,60.9,58.6,30.26,SW,227,0.0,1.0,92,0.00,,---,0.01,VWS V14.01,2013-08-26 02:30:00,
2013-08-25 23:00:00,60.7,58.7,30.27,SW,227,0.0,0.0,93,0.00,,---,0.01,VWS V14.01,2013-08-26 03:00:00,
2013-08-25 23:30:00,60.1,58.1,30.27,SW,227,0.0,1.0,93,0.00,,---,0.01,VWS V14.01,2013-08-26 03:30:00,